Latest Weather Observations for Port Lincoln Airport

IDS60801

Issued at 8:31 pm CST Wednesday 27 July 2016 (issued every 30 minutes, with the page automatically refreshed every 10 minutes)

About weather observations | Map of weather stations | Latest weather observations for SA | Other Formats
Station Details ID: 018192 Name: PORT LINCOLN AWS Lat: -34.60 Lon: 135.88 Height: 8.5 m
Data from the previous 72 hours. | See also: Recent months at Port Lincoln Airport
Date/Time
CST
Temp
°C
App
Temp
°C
Dew
Point
°C
Rel
Hum
%
Delta-T
°C
Wind Press
QNH
hPa
Press
MSL
hPa
Rain since
9am
mm
Dir  Spd
km/h
Gust
km/h
Spd
kts
Gust
kts
27/08:30pm 10.7 8.3 8.5 86 1.1 NW 11 13 6 7 1028.2 1028.2 0.0
27/08:00pm 11.0 8.2 8.4 84 1.3 WNW 13 17 7 9 1028.1 1028.1 0.0
27/07:30pm 10.6 8.1 8.4 86 1.1 NW 11 13 6 7 1028.2 1028.2 0.0
27/07:00pm 10.3 7.8 8.2 87 1.0 NW 11 13 6 7 1027.9 1027.9 0.0
27/06:30pm 10.7 8.9 7.9 83 1.3 W 7 9 4 5 1027.7 1027.7 0.0
27/06:00pm 10.7 8.7 8.8 88 0.9 WNW 9 11 5 6 1027.4 1027.4 0.0
27/05:30pm 10.7 8.6 8.1 84 1.3 WNW 9 11 5 6 1027.1 1027.1 0.0
27/05:00pm 11.9 9.1 8.4 79 1.7 WNW 13 19 7 10 1026.9 1026.9 0.0
27/04:30pm 12.0 8.0 8.3 78 1.8 WNW 19 26 10 14 1027.1 1027.1 0.0
27/04:00pm 12.6 8.4 7.3 70 2.6 W 19 26 10 14 1026.8 1026.8 0.0
27/03:30pm 12.8 8.4 7.5 70 2.6 W 20 28 11 15 1026.7 1026.7 0.0
27/03:00pm 13.2 8.8 7.4 68 2.8 W 20 28 11 15 1026.1 1026.1 0.0
27/02:30pm 13.2 8.0 7.4 68 2.8 WSW 24 30 13 16 1025.9 1025.9 0.0
27/02:00pm 13.7 9.0 7.9 68 2.9 WSW 22 30 12 16 1025.8 1025.8 0.0
27/01:30pm 13.6 9.1 6.9 64 3.2 WSW 20 30 11 16 1025.7 1025.7 0.0
27/01:00pm 13.8 9.4 6.7 62 3.4 WSW 19 24 10 13 1025.6 1025.6 0.0
27/12:30pm 13.6 9.4 7.4 66 3.0 SW 19 26 10 14 1025.7 1025.7 0.0
27/12:00pm 14.4 10.1 7.7 64 3.3 SW 20 30 11 16 1025.8 1025.8 0.0
27/11:30am 13.5 9.0 6.8 64 3.2 WSW 20 28 11 15 1026.0 1026.0 0.0
27/11:00am 13.2 9.4 7.6 69 2.7 WSW 17 26 9 14 1026.0 1026.0 0.0
27/10:30am 13.1 9.2 6.9 66 3.0 SW 17 22 9 12 1025.8 1025.8 0.0
27/10:00am 12.8 8.9 7.3 69 2.7 SW 17 20 9 11 1025.5 1025.5 0.0
27/09:30am 11.9 8.8 7.2 73 2.2 WSW 13 17 7 9 1025.1 1025.1 0.0
27/09:00am 11.2 8.5 7.3 77 1.9 WSW 11 15 6 8 1024.4 1024.4 5.2
27/08:30am 10.5 8.1 7.2 80 1.6 WSW 9 11 5 6 1024.1 1024.1 5.2
27/08:00am 10.1 6.8 6.6 79 1.6 WSW 13 19 7 10 1023.7 1023.7 5.2
27/07:30am 10.2 6.4 5.8 74 2.0 SW 15 22 8 12 1023.1 1023.1 5.2
27/07:00am 10.5 6.6 5.5 71 2.3 SW 15 19 8 10 1022.6 1022.6 5.2
27/06:30am 10.3 6.4 5.3 71 2.3 SW 15 20 8 11 1022.1 1022.1 5.2
27/06:00am 10.3 5.4 5.1 70 2.3 SSW 20 26 11 14 1021.7 1021.7 5.2
27/05:30am 10.7 6.5 5.9 72 2.2 SW 17 24 9 13 1021.1 1021.1 5.2
27/05:00am 10.1 7.2 6.6 79 1.6 WSW 11 15 6 8 1020.8 1020.8 5.2
27/04:30am 10.7 7.3 5.9 72 2.2 SW 13 20 7 11 1020.1 1020.1 5.2
27/04:00am 10.8 7.1 6.4 74 2.1 SW 15 20 8 11 1019.9 1019.9 5.2
27/03:30am 10.9 6.9 6.8 76 1.9 SW 17 22 9 12 1019.6 1019.6 5.2
27/03:00am 11.0 6.3 6.2 72 2.2 SW 20 26 11 14 1019.5 1019.5 5.2
27/02:30am 10.9 5.9 6.6 75 2.0 SW 22 32 12 17 1019.3 1019.3 5.2
27/02:00am 11.1 5.5 7.2 77 1.9 SW 26 35 14 19 1019.1 1019.1 5.2
27/01:30am 11.0 6.7 7.7 80 1.6 SW 20 32 11 17 1018.8 1018.8 5.2
27/01:00am 10.8 6.3 8.6 86 1.1 SW 22 30 12 16 1018.1 1018.1 5.2
27/12:30am 10.9 5.4 9.2 89 0.8 WSW 28 44 15 24 1017.7 1017.7 5.2
27/12:00am 10.8 6.3 8.4 85 1.2 SW 22 32 12 17 1017.0 1017.0 5.2
 
Date/Time
CST
Temp
°C
App
Temp
°C
Dew
Point
°C
Rel
Hum
%
Delta-T
°C
Wind Press
QNH
hPa
Press
MSL
hPa
Rain since
9am
mm
Dir  Spd
km/h
Gust
km/h
Spd
kts
Gust
kts
26/11:30pm 10.8 6.8 9.1 89 0.8 WSW 20 26 11 14 1016.5 1016.5 5.2
26/11:00pm 10.7 6.2 8.6 87 1.0 WSW 22 30 12 16 1016.0 1016.0 5.2
26/10:51pm 11.1 5.5 8.8 86 1.1 WSW 28 37 15 20 1015.8 1015.8 5.2
26/10:35pm 11.0 5.1 9.1 88 0.9 WSW 30 48 16 26 1015.9 1015.9 5.2
26/10:34pm 11.0 5.4 8.9 87 1.0 WSW 28 46 15 25 1015.9 1015.9 5.2
26/10:30pm 11.1 7.0 8.5 84 1.3 WSW 20 32 11 17 1015.8 1015.8 5.2
26/10:00pm 11.1 6.6 8.7 85 1.2 WSW 22 28 12 15 1015.2 1015.2 5.2
26/09:30pm 11.0 6.4 8.2 83 1.4 W 22 30 12 16 1014.6 1014.6 5.2
26/09:00pm 11.1 5.0 8.3 83 1.4 WSW 30 41 16 22 1014.0 1014.0 5.2
26/08:30pm 11.1 4.5 7.8 80 1.6 WSW 32 48 17 26 1013.6 1013.6 5.0
26/08:14pm 11.5 4.9 7.6 77 1.9 WSW 32 50 17 27 1013.2 1013.2 5.0
26/08:00pm 11.8 4.2 7.7 76 2.0 WSW 37 54 20 29 1012.9 1012.9 5.0
26/07:30pm 11.5 5.0 8.9 84 1.3 W 33 44 18 24 1012.3 1012.3 5.0
26/07:16pm 11.4 4.9 9.0 85 1.2 W 33 44 18 24 1012.2 1012.2 5.0
26/07:00pm 11.4 5.1 9.1 86 1.1 WSW 32 44 17 24 1011.9 1011.9 5.0
26/06:56pm 11.6 6.1 9.3 86 1.2 WSW 28 43 15 23 1012.0 1012.0 5.0
26/06:31pm 11.6 4.7 8.8 83 1.4 WSW 35 54 19 29 1011.2 1011.2 5.0
26/06:30pm 11.7 4.4 8.7 82 1.5 WSW 37 54 20 29 1011.2 1011.2 5.0
26/06:22pm 11.9 5.3 8.7 81 1.6 WSW 33 54 18 29 1011.2 1011.2 5.0
26/06:00pm 11.6 5.4 10.2 91 0.7 WSW 33 44 18 24 1010.7 1010.7 5.0
26/05:56pm 11.5 4.9 10.1 91 0.7 WSW 35 46 19 25 1010.5 1010.5 5.0
26/05:30pm 11.1 2.4 10.0 93 0.6 W 46 70 25 38 1010.2 1010.2 5.0
26/05:00pm 11.7 2.7 10.4 92 0.7 W 48 67 26 36 1009.5 1009.5 4.4
26/04:30pm 12.6 4.5 10.7 88 1.0 W 44 65 24 35 1008.9 1008.9 3.0
26/04:24pm 12.8 4.4 10.9 88 1.0 W 46 65 25 35 1008.9 1008.9 3.0
26/04:22pm 13.0 4.5 10.7 86 1.2 W 46 65 25 35 1008.9 1008.9 3.0
26/04:20pm 13.0 4.1 10.5 85 1.3 W 48 65 26 35 1008.8 1008.8 3.0
26/04:02pm 12.9 3.0 11.0 88 1.0 WNW 54 72 29 39 1008.8 1008.8 2.8
26/04:00pm 12.9 2.5 10.8 87 1.1 WNW 56 72 30 39 1008.8 1008.8 2.8
26/03:40pm 13.0 3.2 10.2 83 1.4 WNW 52 72 28 39 1008.6 1008.6 2.8
26/03:38pm 13.1 3.2 9.9 81 1.6 WNW 52 72 28 39 1008.6 1008.6 2.6
26/03:33pm 13.8 4.0 10.0 78 2.0 WNW 52 69 28 37 1008.3 1008.3 2.4
26/03:30pm 14.2 4.1 10.4 78 2.0 WNW 54 72 29 39 1008.3 1008.3 2.4
26/03:13pm 12.8 4.3 10.5 86 1.2 WNW 46 69 25 37 1008.7 1008.7 2.2
26/03:01pm 13.2 5.2 10.4 83 1.5 WNW 43 63 23 34 1008.8 1008.8 2.2
26/03:00pm 13.1 5.5 10.6 85 1.3 WNW 41 57 22 31 1008.8 1008.8 2.2
26/02:42pm 12.9 3.5 10.3 84 1.3 WNW 50 78 27 42 1009.1 1009.1 1.8
26/02:31pm 14.0 5.9 10.0 77 2.1 WNW 43 61 23 33 1009.1 1009.1 1.4
26/02:30pm 14.1 5.9 10.3 78 2.0 WNW 44 61 24 33 1009.1 1009.1 1.4
26/02:00pm 13.8 5.3 10.6 81 1.7 WNW 46 65 25 35 1009.5 1009.5 1.4
26/01:51pm 13.5 5.9 10.5 82 1.6 WNW 41 59 22 32 1009.8 1009.8 1.4
26/01:43pm 13.2 5.3 10.9 86 1.2 WNW 43 56 23 30 1010.1 1010.1 1.4
26/01:30pm 11.9 3.7 9.8 87 1.1 WNW 43 57 23 31 1010.6 1010.6 1.4
26/01:26pm 11.8 3.4 9.7 87 1.1 WNW 44 59 24 32 1010.8 1010.8 1.4
26/01:00pm 12.4 5.6 9.1 80 1.7 WNW 35 54 19 29 1011.2 1011.2 1.0
26/12:48pm 11.6 4.0 9.0 84 1.3 WNW 39 57 21 31 1011.4 1011.4 1.0
26/12:35pm 11.5 5.1 8.7 83 1.4 WNW 32 56 17 30 1012.0 1012.0 0.8
26/12:34pm 11.5 5.1 8.7 83 1.4 WNW 32 48 17 26 1012.0 1012.0 0.8
26/12:30pm 11.7 5.8 9.1 84 1.3 NW 30 48 16 26 1012.1 1012.1 0.6
26/12:03pm 11.4 4.9 9.1 86 1.1 WNW 33 46 18 25 1012.3 1012.3 0.4
26/12:00pm 11.2 4.4 9.3 88 1.0 WNW 35 46 19 25 1012.6 1012.6 0.4
26/11:52am 10.9 2.4 8.7 86 1.1 WNW 43 61 23 33 1013.0 1013.0 0.4
26/11:48am 11.1 2.3 8.1 82 1.5 WNW 44 61 24 33 1013.3 1013.3 0.2
26/11:45am 11.4 3.2 8.1 80 1.6 WNW 41 61 22 33 1013.2 1013.2 0.2
26/11:30am 13.3 6.3 8.4 72 2.4 NW 35 50 19 27 1013.0 1013.0 0.0
26/11:01am 12.9 5.3 6.0 63 3.3 WNW 35 57 19 31 1013.5 1013.5 0.0
26/11:00am 12.9 5.8 6.3 64 3.1 WNW 33 50 18 27 1013.5 1013.5 0.0
26/10:30am 12.2 4.9 7.3 72 2.4 NW 35 50 19 27 1013.9 1013.9 0.0
26/10:00am 12.8 6.3 6.6 66 3.0 WNW 30 43 16 23 1014.1 1014.1 0.0
26/09:59am 12.8 6.3 6.6 66 3.0 WNW 30 43 16 23 1014.1 1014.1 0.0
26/09:30am 11.3 7.9 7.6 78 1.8 NW 15 24 8 13 1014.4 1014.4 0.0
26/09:00am 9.7 6.8 6.6 81 1.4 N 11 17 6 9 1014.6 1014.6 1.6
26/08:30am 8.7 6.5 6.3 85 1.1 NNW 7 11 4 6 1015.1 1015.1 1.6
26/08:00am 7.7 5.0 5.7 87 0.9 NNW 9 11 5 6 1015.2 1015.2 1.6
26/07:30am 7.4 3.8 5.2 86 1.0 NNW 13 15 7 8 1015.2 1015.2 1.6
26/07:00am 7.0 3.4 4.8 86 1.0 NNW 13 17 7 9 1015.3 1015.3 1.6
26/06:30am 6.6 2.9 4.4 86 0.9 NW 13 15 7 8 1015.5 1015.5 1.6
26/06:00am 6.1 2.8 4.6 90 0.6 NNW 11 13 6 7 1015.9 1015.9 1.6
26/05:30am 5.7 2.7 4.3 91 0.6 N 9 13 5 7 1016.1 1016.1 1.6
26/05:00am 5.0 1.9 3.7 91 0.5 WNW 9 13 5 7 1016.1 1016.1 1.6
26/04:30am 6.1 2.4 4.4 89 0.7 NW 13 17 7 9 1016.5 1016.5 1.6
26/04:00am 6.2 2.9 4.4 88 0.8 WNW 11 15 6 8 1016.7 1016.7 1.6
26/03:30am 6.7 3.1 4.9 88 0.8 NW 13 15 7 8 1017.0 1017.0 1.6
26/03:00am 7.4 3.7 4.7 83 1.2 WNW 13 15 7 8 1017.3 1017.3 1.6
26/02:30am 6.9 4.0 4.6 85 1.0 WNW 9 13 5 7 1017.5 1017.5 1.6
26/02:00am 5.7 1.9 3.9 88 0.8 W 13 17 7 9 1017.8 1017.8 1.6
26/01:30am 6.2 1.6 3.5 83 1.1 WNW 17 20 9 11 1018.0 1018.0 1.6
26/01:00am 7.5 2.9 3.9 78 1.5 WNW 17 20 9 11 1018.1 1018.1 1.6
26/12:30am 6.9 1.9 3.7 80 1.4 W 19 20 10 11 1018.2 1018.2 1.6
26/12:00am 7.2 2.6 3.8 79 1.4 WNW 17 20 9 11 1018.3 1018.3 1.6
 
Date/Time
CST
Temp
°C
App
Temp
°C
Dew
Point
°C
Rel
Hum
%
Delta-T
°C
Wind Press
QNH
hPa
Press
MSL
hPa
Rain since
9am
mm
Dir  Spd
km/h
Gust
km/h
Spd
kts
Gust
kts
25/11:30pm 6.9 1.9 3.7 80 1.4 WNW 19 20 10 11 1018.5 1018.5 1.6
25/11:00pm 7.0 2.4 3.8 80 1.4 W 17 20 9 11 1018.6 1018.6 1.6
25/10:30pm 7.3 2.9 4.8 84 1.1 WNW 17 19 9 10 1018.6 1018.6 1.6
25/10:00pm 7.0 3.7 4.7 85 1.0 W 11 13 6 7 1018.4 1018.4 1.6
25/09:30pm 8.6 4.8 5.7 82 1.3 WSW 15 20 8 11 1018.6 1018.6 1.6
25/09:00pm 8.7 3.6 6.2 84 1.1 W 22 32 12 17 1018.6 1018.6 1.4
25/08:30pm 7.0 2.8 4.0 81 1.3 W 15 17 8 9 1018.1 1018.1 1.4
25/08:00pm 8.0 4.3 4.4 78 1.6 W 13 15 7 8 1017.9 1017.9 1.4
25/07:30pm 9.0 4.5 4.0 71 2.2 W 17 20 9 11 1017.6 1017.6 1.4
25/07:00pm 9.6 4.6 4.4 70 2.3 WSW 20 28 11 15 1017.2 1017.2 1.4
25/06:30pm 10.5 5.9 6.5 76 1.9 WSW 20 28 11 15 1016.6 1016.6 1.4
25/06:00pm 10.9 6.1 7.4 79 1.7 WSW 22 35 12 19 1016.1 1016.1 1.4
25/05:30pm 11.0 6.8 8.1 82 1.4 WSW 20 32 11 17 1015.9 1015.9 1.4
25/05:00pm 10.8 4.7 8.4 85 1.2 WSW 30 43 16 23 1015.3 1015.3 1.4
25/04:30pm 11.0 4.4 8.6 85 1.2 WSW 33 46 18 25 1015.0 1015.0 1.4
25/04:18pm 10.8 3.8 8.6 86 1.1 WSW 35 59 19 32 1015.0 1015.0 1.4
25/04:16pm 10.8 4.2 8.4 85 1.2 WSW 33 59 18 32 1015.0 1015.0 1.4
25/04:00pm 11.5 4.8 9.8 89 0.9 WSW 35 50 19 27 1014.7 1014.7 1.4
25/03:59pm 11.6 5.4 10.0 90 0.8 WSW 33 50 18 27 1014.7 1014.7 1.4
25/03:30pm 12.5 5.9 9.9 84 1.3 WSW 35 46 19 25 1014.1 1014.1 1.4
25/03:24pm 12.3 6.4 10.4 88 1.0 WSW 32 43 17 23 1014.1 1014.1 1.4
25/03:17pm 12.0 6.2 10.7 92 0.7 WSW 32 48 17 26 1014.1 1014.1 1.4
25/03:07pm 11.8 5.3 10.5 92 0.7 WSW 35 56 19 30 1014.1 1014.1 1.4
25/03:00pm 12.1 5.7 10.7 91 0.7 WSW 35 56 19 30 1013.9 1013.9 1.2
25/02:32pm 12.1 4.5 10.5 90 0.8 WSW 41 61 22 33 1013.5 1013.5 0.8
25/02:30pm 12.2 4.5 10.3 88 1.0 WSW 41 61 22 33 1013.5 1013.5 0.8
25/02:08pm 13.2 4.0 10.9 86 1.2 WSW 50 70 27 38 1012.9 1012.9 0.6
25/02:00pm 12.5 0.9 9.9 84 1.3 WSW 61 80 33 43 1013.0 1013.0 0.6
25/01:50pm 13.0 2.6 9.1 77 2.0 W 54 80 29 43 1012.7 1012.7 0.6
25/01:31pm 14.1 4.7 11.4 84 1.4 WNW 52 74 28 40 1012.5 1012.5 0.4
25/01:30pm 14.1 4.7 11.6 85 1.3 WNW 52 74 28 40 1012.6 1012.6 0.4
25/01:08pm 13.6 3.1 10.2 80 1.8 WNW 56 76 30 41 1012.9 1012.9 0.2
25/01:01pm 15.5 5.1 9.2 66 3.2 WNW 54 76 29 41 1012.6 1012.6 0.0
25/01:00pm 15.8 5.6 9.9 68 3.1 WNW 54 70 29 38 1012.6 1012.6 0.0
25/12:32pm 15.5 6.3 9.6 68 3.1 WNW 48 69 26 37 1013.0 1013.0 0.0
25/12:30pm 15.7 6.7 10.2 70 2.9 WNW 48 63 26 34 1013.0 1013.0 0.0
25/12:00pm 15.2 4.4 9.8 70 2.8 WNW 57 80 31 43 1013.4 1013.4 0.0
25/11:30am 14.2 5.1 11.2 82 1.6 WNW 50 69 27 37 1013.7 1013.7 0.0
25/11:29am 14.3 5.2 11.3 82 1.6 WNW 50 69 27 37 1013.7 1013.7 0.0
25/11:18am 14.1 5.3 11.1 82 1.6 WNW 48 65 26 35 1013.8 1013.8 0.0
25/11:06am 13.6 4.6 11.5 87 1.1 WNW 50 69 27 37 1014.1 1014.1 0.0
25/11:04am 13.3 4.1 10.8 85 1.3 WNW 50 67 27 36 1014.1 1014.1 0.0
25/11:00am 14.1 4.7 10.1 77 2.1 WNW 50 69 27 37 1014.0 1014.0 0.0
25/10:32am 13.9 6.4 10.9 82 1.6 WNW 41 59 22 32 1014.1 1014.1 0.0
25/10:30am 13.9 6.9 11.2 84 1.4 WNW 39 56 21 30 1014.1 1014.1 0.0
25/10:28am 13.6 6.5 10.8 83 1.5 WNW 39 56 21 30 1014.2 1014.2 0.0
25/10:10am 12.9 5.3 10.6 86 1.2 WNW 41 61 22 33 1014.4 1014.4 0.0
25/10:00am 13.8 6.6 10.6 81 1.7 WNW 39 52 21 28 1014.4 1014.4 0.0
25/09:31am 12.5 6.1 10.6 88 1.0 WNW 35 54 19 29 1014.6 1014.6 0.0
25/09:30am 12.5 5.7 10.6 88 1.0 WNW 37 54 20 29 1014.6 1014.6 0.0
25/09:23am 11.9 5.3 10.0 88 1.0 WNW 35 54 19 29 1014.6 1014.6 0.0
25/09:17am 12.1 5.5 10.0 87 1.1 WNW 35 44 19 24 1014.5 1014.5 0.0
25/09:00am 12.0 4.6 9.9 87 1.1 WNW 39 54 21 29 1014.5 1014.5 3.0
25/08:59am 12.2 5.2 10.1 87 1.1 WNW 37 54 20 29 1014.6 1014.6 2.8
25/08:45am 12.2 6.1 9.8 85 1.2 WNW 32 50 17 27 1014.6 1014.6 2.8
25/08:41am 12.0 6.4 10.1 88 1.0 WNW 30 41 16 22 1014.8 1014.8 2.8
25/08:30am 11.2 4.8 9.5 89 0.9 W 33 46 18 25 1015.0 1015.0 2.8
25/08:24am 11.6 5.4 9.5 87 1.1 WNW 32 46 17 25 1014.9 1014.9 2.8
25/08:00am 11.4 6.1 8.4 82 1.5 WNW 26 37 14 20 1014.8 1014.8 2.6
25/07:30am 11.0 6.9 7.7 80 1.6 NW 19 41 10 22 1015.0 1015.0 2.6
25/07:29am 10.9 7.5 7.8 81 1.5 NW 15 41 8 22 1015.0 1015.0 2.6
25/07:00am 9.8 6.3 7.4 85 1.1 NW 15 19 8 10 1015.3 1015.3 2.6
25/06:30am 9.9 5.6 7.2 83 1.3 WNW 19 26 10 14 1015.2 1015.2 2.6
25/06:00am 8.8 5.7 7.1 89 0.8 NW 13 20 7 11 1015.5 1015.5 2.6
25/05:30am 8.1 4.4 6.2 88 0.9 NW 15 17 8 9 1015.3 1015.3 2.6
25/05:00am 7.0 3.8 5.3 89 0.8 NW 11 13 6 7 1015.5 1015.5 2.6
25/04:30am 7.0 3.5 5.3 89 0.8 NW 13 15 7 8 1015.7 1015.7 2.6
25/04:00am 7.5 4.1 6.1 91 0.6 NW 13 15 7 8 1016.0 1016.0 2.6
25/03:30am 6.6 2.6 4.9 89 0.7 NW 15 17 8 9 1016.1 1016.1 2.6
25/03:00am 7.8 3.6 5.9 88 0.9 NW 17 19 9 10 1016.2 1016.2 2.6
25/02:30am 8.4 4.3 6.2 86 1.0 WNW 17 20 9 11 1016.4 1016.4 2.6
25/02:00am 7.9 4.9 6.0 88 0.9 WNW 11 22 6 12 1016.4 1016.4 2.6
25/01:30am 7.1 3.9 4.9 86 1.0 NW 11 13 6 7 1016.5 1016.5 2.6
25/01:00am 8.1 4.7 6.1 87 0.9 WNW 13 17 7 9 1016.7 1016.7 2.6
25/12:30am 8.6 4.9 6.4 86 1.0 WNW 15 20 8 11 1016.8 1016.8 2.6
25/12:00am 9.1 4.8 7.1 87 0.9 W 19 26 10 14 1016.8 1016.8 2.6
 
Date/Time
CST
Temp
°C
App
Temp
°C
Dew
Point
°C
Rel
Hum
%
Delta-T
°C
Wind Press
QNH
hPa
Press
MSL
hPa
Rain since
9am
mm
Dir  Spd
km/h
Gust
km/h
Spd
kts
Gust
kts
24/11:30pm 9.9 4.5 6.3 78 1.7 WSW 24 35 13 19 1016.8 1016.8 2.6
24/11:00pm 9.1 4.4 6.2 82 1.3 W 20 24 11 13 1016.5 1016.5 2.6
24/10:30pm 9.4 4.4 6.3 81 1.4 W 22 30 12 16 1016.4 1016.4 2.6
24/10:00pm 9.7 3.6 6.8 82 1.4 W 28 37 15 20 1016.1 1016.1 2.6
24/09:30pm 9.5 4.0 7.4 87 1.0 WSW 26 37 14 20 1015.8 1015.8 2.6
24/09:00pm 9.7 3.3 7.1 84 1.2 W 30 37 16 20 1015.4 1015.4 2.4
24/08:48pm 9.2 2.6 6.1 81 1.4 WSW 30 41 16 22 1015.3 1015.3 2.4
24/08:32pm 9.7 3.4 7.5 86 1.0 WSW 30 50 16 27 1015.6 1015.6 2.2

Other Formats:

Comma delimited format used in spreadsheet applications
http://www.bom.gov.au/fwo/IDS60801/IDS60801.95661.axf

JavaScript Object Notation format (JSON) in row-major order
http://www.bom.gov.au/fwo/IDS60801/IDS60801.95661.json